createdAt,value
2023-03-04T00:00:12.443Z,14.40
2023-03-04T00:03:00.878Z,13.50
2023-03-04T00:05:31.262Z,14.00
2023-03-04T00:07:59.330Z,14.80
2023-03-04T00:10:27.545Z,14.30
2023-03-04T00:12:57.801Z,14.10
2023-03-04T00:15:26.183Z,14.50
2023-03-04T00:17:55.213Z,13.40
2023-03-04T00:20:24.122Z,14.40
2023-03-04T00:22:53.020Z,13.60
2023-03-04T00:25:22.289Z,13.50
2023-03-04T00:27:51.007Z,12.60
2023-03-04T00:30:20.143Z,13.40
2023-03-04T00:32:48.880Z,13.40
2023-03-04T00:35:17.318Z,13.40
2023-03-04T00:37:45.568Z,13.50
2023-03-04T00:40:14.317Z,12.60
2023-03-04T00:42:42.672Z,12.90
2023-03-04T00:45:11.139Z,12.10
2023-03-04T00:47:39.720Z,12.70
2023-03-04T00:50:09.493Z,13.10
2023-03-04T00:52:37.785Z,12.80
2023-03-04T00:55:09.209Z,10.90
2023-03-04T00:57:38.040Z,12.30
2023-03-04T01:00:11.478Z,12.30
2023-03-04T01:02:44.230Z,11.60
2023-03-04T01:05:13.422Z,11.50
2023-03-04T01:07:42.102Z,11.70
2023-03-04T01:10:13.114Z,11.80
2023-03-04T01:12:42.634Z,10.60
2023-03-04T01:15:14.252Z,12.40
2023-03-04T01:17:42.686Z,11.90
2023-03-04T01:20:12.164Z,11.10
2023-03-04T01:22:40.834Z,11.00
2023-03-04T01:25:10.676Z,12.00
2023-03-04T01:27:38.951Z,10.30
2023-03-04T01:30:07.861Z,11.60
2023-03-04T01:32:36.511Z,11.40
2023-03-04T01:35:05.519Z,12.10
2023-03-04T01:37:34.565Z,11.20
2023-03-04T01:40:02.961Z,11.30
2023-03-04T01:42:34.998Z,11.80
2023-03-04T01:45:06.398Z,11.30
2023-03-04T01:47:36.615Z,9.90
2023-03-04T01:50:11.627Z,10.60
2023-03-04T01:52:41.314Z,11.40
2023-03-04T01:55:18.264Z,10.50
2023-03-04T01:57:49.186Z,11.20
2023-03-04T02:00:25.725Z,10.70
2023-03-04T02:02:58.747Z,11.20
2023-03-04T02:05:28.715Z,10.60
2023-03-04T02:07:58.643Z,11.80
2023-03-04T02:10:28.265Z,10.50
2023-03-04T02:12:57.298Z,11.00
2023-03-04T02:15:26.392Z,10.40
2023-03-04T02:17:55.761Z,11.40
2023-03-04T02:20:54.589Z,10.60
2023-03-04T02:23:23.432Z,10.70
2023-03-04T02:26:12.077Z,10.40
2023-03-04T02:28:42.043Z,10.60
2023-03-04T02:31:35.835Z,10.70
2023-03-04T02:34:16.925Z,12.20
2023-03-04T02:36:47.069Z,10.50
2023-03-04T02:39:40.916Z,10.50
2023-03-04T02:42:10.972Z,11.30
2023-03-04T02:44:43.769Z,9.40
2023-03-04T02:47:18.037Z,10.30
2023-03-04T02:49:47.398Z,10.10
2023-03-04T02:52:22.742Z,10.70
2023-03-04T02:54:51.658Z,10.30
2023-03-04T02:57:20.555Z,9.20
2023-03-04T02:59:53.056Z,10.10
2023-03-04T03:02:24.101Z,10.30
2023-03-04T03:04:52.866Z,8.90
2023-03-04T03:07:22.265Z,10.40
2023-03-04T03:09:51.524Z,9.90
2023-03-04T03:12:20.449Z,9.30
2023-03-04T03:14:48.736Z,9.60
2023-03-04T03:17:21.237Z,9.50
2023-03-04T03:19:49.647Z,10.50
2023-03-04T03:22:18.421Z,9.60
2023-03-04T03:24:47.673Z,9.30
2023-03-04T03:27:17.127Z,9.00
2023-03-04T03:29:45.927Z,9.60
2023-03-04T03:32:14.966Z,9.50
2023-03-04T03:34:43.448Z,9.80
2023-03-04T03:37:13.491Z,9.20
2023-03-04T03:39:42.457Z,9.80
2023-03-04T03:42:11.688Z,9.30
2023-03-04T03:44:40.614Z,8.90
2023-03-04T03:47:09.315Z,9.70
2023-03-04T03:49:37.748Z,9.10
2023-03-04T03:52:08.550Z,9.20
2023-03-04T03:54:37.920Z,9.10
2023-03-04T03:57:07.431Z,9.40
2023-03-04T03:59:35.899Z,8.90
2023-03-04T04:02:04.750Z,10.60
2023-03-04T04:04:33.696Z,9.80
2023-03-04T04:07:05.690Z,8.80
2023-03-04T04:09:34.786Z,9.30
2023-03-04T04:12:07.845Z,9.80
2023-03-04T04:14:36.415Z,9.20
2023-03-04T04:17:04.735Z,9.50
2023-03-04T04:19:33.499Z,9.40
2023-03-04T04:22:02.290Z,10.70
2023-03-04T04:24:30.904Z,9.80
2023-03-04T04:27:00.012Z,10.60
2023-03-04T04:29:28.662Z,9.50
2023-03-04T04:31:57.198Z,8.80
2023-03-04T04:34:26.672Z,10.60
2023-03-04T04:36:55.021Z,9.90
2023-03-04T04:39:23.438Z,9.90
2023-03-04T04:41:51.650Z,9.90
2023-03-04T04:44:20.071Z,10.90
2023-03-04T04:46:48.421Z,10.20
2023-03-04T04:49:17.035Z,9.80
2023-03-04T04:51:46.697Z,10.50
2023-03-04T04:54:15.774Z,10.20
2023-03-04T04:56:44.079Z,10.30
2023-03-04T04:59:12.463Z,10.10
2023-03-04T05:01:41.597Z,9.70
2023-03-04T05:04:10.061Z,9.90
2023-03-04T05:06:39.585Z,9.20
2023-03-04T05:09:08.029Z,9.50
2023-03-04T05:11:36.888Z,10.80
2023-03-04T05:14:06.515Z,10.40
2023-03-04T05:16:36.781Z,9.40
2023-03-04T05:19:07.313Z,9.50
2023-03-04T05:21:36.159Z,8.90
2023-03-04T05:24:05.296Z,10.40
2023-03-04T05:26:34.399Z,9.10
2023-03-04T05:29:03.968Z,9.70
2023-03-04T05:31:34.673Z,9.70
2023-03-04T05:34:04.169Z,9.50
2023-03-04T05:36:33.439Z,9.40
2023-03-04T05:39:02.694Z,9.90
2023-03-04T05:41:31.167Z,9.70
2023-03-04T05:43:59.727Z,9.60
2023-03-04T05:46:28.530Z,10.60
2023-03-04T05:48:56.780Z,9.50
2023-03-04T05:51:25.624Z,10.20
2023-03-04T05:53:56.420Z,9.60
2023-03-04T05:56:25.116Z,10.10
2023-03-04T05:58:54.337Z,9.80
2023-03-04T06:01:23.226Z,10.50
2023-03-04T06:03:51.572Z,9.90
2023-03-04T06:06:20.010Z,10.10
2023-03-04T06:08:49.125Z,9.60
2023-03-04T06:11:17.515Z,10.20
2023-03-04T06:13:45.753Z,9.60
2023-03-04T06:16:14.033Z,9.70
2023-03-04T06:18:42.729Z,9.40
2023-03-04T06:21:11.649Z,9.40
2023-03-04T06:23:42.117Z,9.40
2023-03-04T06:26:15.457Z,9.70
2023-03-04T06:28:45.002Z,9.60
2023-03-04T06:31:13.460Z,10.80
2023-03-04T06:33:41.841Z,9.70
2023-03-04T06:36:10.756Z,9.60
2023-03-04T06:38:39.932Z,9.30
2023-03-04T06:41:10.902Z,8.90
2023-03-04T06:43:40.153Z,9.20
2023-03-04T06:46:09.549Z,9.80
2023-03-04T06:48:38.971Z,9.60
2023-03-04T06:51:11.879Z,9.40
2023-03-04T06:53:41.712Z,9.70
2023-03-04T06:56:12.548Z,9.80
2023-03-04T06:58:41.018Z,9.50
2023-03-04T07:01:18.383Z,9.40
2023-03-04T07:03:47.778Z,9.60
2023-03-04T07:06:19.513Z,9.70
2023-03-04T07:08:48.762Z,9.20
2023-03-04T07:11:18.717Z,8.90
2023-03-04T07:13:47.840Z,8.60
2023-03-04T07:16:19.631Z,9.20
2023-03-04T07:18:48.616Z,8.70
2023-03-04T07:21:18.389Z,8.30
2023-03-04T07:23:47.130Z,8.00
2023-03-04T07:26:17.385Z,8.40
2023-03-04T07:28:45.675Z,8.30
2023-03-04T07:31:23.454Z,7.80
2023-03-04T07:33:52.675Z,9.20
2023-03-04T07:36:21.771Z,8.00
2023-03-04T07:38:51.141Z,7.20
2023-03-04T07:41:19.467Z,8.20
2023-03-04T07:43:48.317Z,8.20
2023-03-04T07:46:19.154Z,8.00
2023-03-04T07:48:47.705Z,7.30
2023-03-04T07:51:19.749Z,7.50
2023-03-04T07:53:51.208Z,7.70
2023-03-04T07:56:23.845Z,7.70
2023-03-04T07:58:56.434Z,7.50
2023-03-04T08:01:34.190Z,7.80
2023-03-04T08:04:04.951Z,8.20
2023-03-04T08:06:34.650Z,7.10
2023-03-04T08:09:06.583Z,7.40
2023-03-04T08:11:36.560Z,7.30
2023-03-04T08:14:04.922Z,7.90
2023-03-04T08:16:33.679Z,7.50
2023-03-04T08:19:04.366Z,7.50
2023-03-04T08:21:33.937Z,6.70
2023-03-04T08:24:08.949Z,6.60
2023-03-04T08:26:43.628Z,6.70
2023-03-04T08:29:21.721Z,7.10
2023-03-04T08:31:51.600Z,7.30
2023-03-04T08:34:22.254Z,6.40
2023-03-04T08:36:50.864Z,7.20
2023-03-04T08:39:20.205Z,7.10
2023-03-04T08:41:49.083Z,7.00
2023-03-04T08:44:17.365Z,7.60
2023-03-04T08:46:45.870Z,7.30
2023-03-04T08:49:15.273Z,7.40
2023-03-04T08:51:45.509Z,7.30
2023-03-04T08:54:13.570Z,7.60
2023-03-04T08:56:42.321Z,7.60
2023-03-04T08:59:11.639Z,8.00
2023-03-04T09:01:40.138Z,7.50
2023-03-04T09:04:08.578Z,8.00
2023-03-04T09:06:36.922Z,7.50
2023-03-04T09:09:05.269Z,8.20
2023-03-04T09:11:33.572Z,8.70
2023-03-04T09:14:02.307Z,7.20
2023-03-04T09:16:31.342Z,8.70
2023-03-04T09:19:00.757Z,8.00
2023-03-04T09:21:29.642Z,7.70
2023-03-04T09:23:58.598Z,7.40
2023-03-04T09:26:29.906Z,8.50
2023-03-04T09:29:00.669Z,8.10
2023-03-04T09:31:30.260Z,8.50
2023-03-04T09:34:00.173Z,8.60
2023-03-04T09:36:29.317Z,8.80
2023-03-04T09:39:02.002Z,8.40
2023-03-04T09:41:47.195Z,7.90
2023-03-04T09:44:24.289Z,8.10
2023-03-04T09:46:56.019Z,8.20
2023-03-04T09:49:25.541Z,7.70
2023-03-04T09:52:09.826Z,7.70
2023-03-04T09:54:55.727Z,7.90
2023-03-04T09:57:40.881Z,6.70
2023-03-04T10:03:04.495Z,7.30
2023-03-04T10:05:41.575Z,7.40
2023-03-04T10:08:31.363Z,6.70
2023-03-04T10:11:02.337Z,8.00
2023-03-04T10:14:16.487Z,8.10
2023-03-04T10:16:52.401Z,7.40
2023-03-04T10:19:23.798Z,6.80
2023-03-04T10:21:52.834Z,7.10
2023-03-04T10:24:28.908Z,6.80
2023-03-04T10:27:11.657Z,7.40
2023-03-04T10:29:40.453Z,6.90
2023-03-04T10:32:18.163Z,6.60
2023-03-04T10:34:47.307Z,7.50
2023-03-04T10:37:16.352Z,6.50
2023-03-04T10:39:46.854Z,6.60
2023-03-04T10:42:16.350Z,7.30
2023-03-04T10:44:56.560Z,7.00
2023-03-04T10:47:27.756Z,6.40
2023-03-04T10:49:58.636Z,6.50
2023-03-04T10:52:28.974Z,7.00
2023-03-04T10:55:02.859Z,6.30
2023-03-04T10:58:06.623Z,6.40
2023-03-04T11:00:37.132Z,6.50
2023-03-04T11:03:32.507Z,6.60
2023-03-04T11:06:22.233Z,6.40
2023-03-04T11:08:58.451Z,6.60
2023-03-04T11:11:44.877Z,6.80
2023-03-04T11:14:25.196Z,6.10
2023-03-04T11:17:02.307Z,6.20
2023-03-04T11:19:39.791Z,6.30
2023-03-04T11:22:15.022Z,6.50
2023-03-04T11:24:49.649Z,6.20
2023-03-04T11:27:31.208Z,5.80
2023-03-04T11:30:39.569Z,5.90
2023-03-04T11:33:43.026Z,5.90
2023-03-04T11:37:04.705Z,6.80
2023-03-04T11:39:38.816Z,6.00
2023-03-04T11:42:46.144Z,6.10
2023-03-04T11:45:43.845Z,5.90
2023-03-04T11:48:31.012Z,5.90
2023-03-04T11:51:47.913Z,5.90
2023-03-04T11:55:02.571Z,6.10
2023-03-04T11:57:33.546Z,5.70
2023-03-04T12:00:16.727Z,6.00
2023-03-04T12:03:13.228Z,6.10
2023-03-04T12:05:45.138Z,6.60
2023-03-04T12:08:44.466Z,6.10
2023-03-04T12:12:02.536Z,6.60
2023-03-04T12:14:44.450Z,5.50
2023-03-04T12:17:44.526Z,6.40
2023-03-04T12:20:21.772Z,6.20
2023-03-04T12:23:01.943Z,6.60
2023-03-04T12:26:23.282Z,5.90
2023-03-04T12:29:36.587Z,6.10
2023-03-04T12:32:14.736Z,6.00
2023-03-04T12:34:52.114Z,6.10
2023-03-04T12:37:37.655Z,6.10
2023-03-04T12:40:27.486Z,6.00
2023-03-04T12:43:14.460Z,6.10
2023-03-04T12:46:04.787Z,6.80
2023-03-04T12:48:45.811Z,6.20
2023-03-04T12:51:41.404Z,5.70
2023-03-04T12:54:32.271Z,6.00
2023-03-04T12:57:10.256Z,5.50
2023-03-04T13:00:14.562Z,6.00
2023-03-04T13:03:09.058Z,6.30
2023-03-04T13:06:05.026Z,6.60
2023-03-04T13:09:00.156Z,6.00
2023-03-04T13:11:28.507Z,6.00
2023-03-04T13:14:15.390Z,5.90
2023-03-04T13:17:01.854Z,6.00
2023-03-04T13:19:48.794Z,6.20
2023-03-04T13:22:32.573Z,5.70
2023-03-04T13:25:33.747Z,6.40
2023-03-04T13:28:13.919Z,6.10
2023-03-04T13:31:04.835Z,6.30
2023-03-04T13:33:33.669Z,5.80
2023-03-04T13:36:25.793Z,6.30
2023-03-04T13:39:14.571Z,6.50
2023-03-04T13:41:54.718Z,6.70
2023-03-04T13:44:57.857Z,6.40
2023-03-04T13:47:43.730Z,6.40
2023-03-04T13:50:37.483Z,6.60
2023-03-04T13:53:24.106Z,6.10
2023-03-04T13:56:25.438Z,6.30
2023-03-04T13:59:08.925Z,6.10
2023-03-04T14:02:17.734Z,6.50
2023-03-04T14:04:56.951Z,6.20
2023-03-04T14:07:29.724Z,6.40
2023-03-04T14:10:08.848Z,6.40
2023-03-04T14:12:56.511Z,6.20
2023-03-04T14:15:28.640Z,6.20
2023-03-04T14:17:59.616Z,6.40
2023-03-04T14:20:32.217Z,6.30
2023-03-04T14:23:05.157Z,6.30
2023-03-04T14:25:37.067Z,6.40
2023-03-04T14:28:14.303Z,6.20
2023-03-04T14:30:45.223Z,6.10
2023-03-04T14:33:29.004Z,5.90
2023-03-04T14:36:02.769Z,5.40
2023-03-04T14:38:38.427Z,6.00
2023-03-04T14:41:23.234Z,6.30
2023-03-04T14:44:12.467Z,5.90
2023-03-04T14:47:08.376Z,6.50
2023-03-04T14:49:38.438Z,6.20
2023-03-04T14:52:07.391Z,5.70
2023-03-04T14:54:41.888Z,5.70
2023-03-04T14:57:21.201Z,5.80
2023-03-04T14:59:52.192Z,6.10
2023-03-04T15:02:38.307Z,5.50
2023-03-04T15:05:36.578Z,6.00
2023-03-04T15:08:21.192Z,6.10
2023-03-04T15:11:06.174Z,5.70
2023-03-04T15:16:13.555Z,5.90
2023-03-04T15:19:05.882Z,5.20
2023-03-04T15:21:40.316Z,5.20
2023-03-04T15:24:11.383Z,5.40
2023-03-04T15:26:42.651Z,5.90
2023-03-04T15:29:17.688Z,5.30
2023-03-04T15:31:51.996Z,5.00
2023-03-04T15:34:20.793Z,5.40
2023-03-04T15:36:51.580Z,5.50
2023-03-04T15:39:22.005Z,5.20
2023-03-04T15:41:51.058Z,5.90
2023-03-04T15:44:19.401Z,5.30
2023-03-04T15:46:47.728Z,5.70
2023-03-04T15:49:16.909Z,5.30
2023-03-04T15:51:45.646Z,5.10
2023-03-04T15:54:14.356Z,5.30
2023-03-04T15:56:43.166Z,5.90
2023-03-04T15:59:14.504Z,4.90
2023-03-04T16:01:43.873Z,4.70
2023-03-04T16:04:17.304Z,4.80
2023-03-04T16:06:48.863Z,5.60
2023-03-04T16:09:21.213Z,5.50
2023-03-04T16:11:50.370Z,5.70
2023-03-04T16:14:18.783Z,4.90
2023-03-04T16:16:48.201Z,5.40
2023-03-04T16:19:17.562Z,5.30
2023-03-04T16:21:46.838Z,5.60
2023-03-04T16:24:19.232Z,5.30
2023-03-04T16:26:48.061Z,5.00
2023-03-04T16:29:16.985Z,5.40
2023-03-04T16:31:45.302Z,5.60
2023-03-04T16:34:14.837Z,5.10
2023-03-04T16:36:43.425Z,5.70
2023-03-04T16:39:22.809Z,5.70
2023-03-04T16:41:53.532Z,5.90
2023-03-04T16:44:23.268Z,6.00
2023-03-04T16:46:53.393Z,5.60
2023-03-04T16:49:22.037Z,5.90
2023-03-04T16:51:51.269Z,6.50
2023-03-04T16:54:30.500Z,6.30
2023-03-04T16:56:59.360Z,6.70
2023-03-04T16:59:29.538Z,6.20
2023-03-04T17:01:58.806Z,6.70
2023-03-04T17:04:28.122Z,6.70
2023-03-04T17:06:58.009Z,7.50
2023-03-04T17:09:26.694Z,6.20
2023-03-04T17:11:57.814Z,7.00
2023-03-04T17:14:28.718Z,6.30
2023-03-04T17:16:57.598Z,6.20
2023-03-04T17:19:26.548Z,6.60
2023-03-04T17:21:59.809Z,7.00
2023-03-04T17:24:29.057Z,6.80
2023-03-04T17:26:57.322Z,6.90
2023-03-04T17:29:26.536Z,6.70
2023-03-04T17:31:55.272Z,7.10
2023-03-04T17:34:23.645Z,8.10
2023-03-04T17:36:52.614Z,6.90
2023-03-04T17:39:21.595Z,7.80
2023-03-04T17:41:51.389Z,6.90
2023-03-04T17:44:20.266Z,7.80
2023-03-04T17:46:49.056Z,8.60
2023-03-04T17:49:17.643Z,8.10
2023-03-04T17:51:46.556Z,8.50
2023-03-04T17:54:14.922Z,8.70
2023-03-04T17:56:44.613Z,9.10
2023-03-04T17:59:17.410Z,9.70
2023-03-04T18:01:46.309Z,10.10
2023-03-04T18:04:15.106Z,10.50
2023-03-04T18:06:43.267Z,10.90
2023-03-04T18:09:11.528Z,10.20
2023-03-04T18:11:42.223Z,11.50
2023-03-04T18:14:12.899Z,11.10
2023-03-04T18:16:41.379Z,11.60
2023-03-04T18:19:09.834Z,11.30
2023-03-04T18:21:38.500Z,11.70
2023-03-04T18:24:10.072Z,12.50
2023-03-04T18:26:39.039Z,11.80
2023-03-04T18:29:07.204Z,13.90
2023-03-04T18:31:37.061Z,12.90
2023-03-04T18:34:06.608Z,13.70
2023-03-04T18:36:34.791Z,13.80
2023-03-04T18:39:07.595Z,14.00
2023-03-04T18:41:36.452Z,13.10
2023-03-04T18:44:06.049Z,12.80
2023-03-04T18:46:54.473Z,14.50
2023-03-04T18:49:23.873Z,14.40
2023-03-04T18:51:53.842Z,14.80
2023-03-04T18:54:24.632Z,18.40
2023-03-04T18:56:59.943Z,19.80
2023-03-04T18:59:37.233Z,20.50
2023-03-04T19:02:20.242Z,23.60
2023-03-04T19:04:50.667Z,25.60
2023-03-04T19:07:18.879Z,33.90
2023-03-04T19:09:47.581Z,36.00
2023-03-04T19:12:15.842Z,42.90
2023-03-04T19:14:45.346Z,39.80
2023-03-04T19:17:14.686Z,41.30
2023-03-04T19:19:43.024Z,40.70
2023-03-04T19:22:12.928Z,39.10
2023-03-04T19:24:41.962Z,37.40
2023-03-04T19:27:10.237Z,37.30
2023-03-04T19:29:38.958Z,42.80
2023-03-04T19:32:07.876Z,49.40
2023-03-04T19:34:36.445Z,53.00
2023-03-04T19:37:05.027Z,56.70
2023-03-04T19:39:35.982Z,58.30
2023-03-04T19:42:04.468Z,71.30
2023-03-04T19:44:32.932Z,70.70
2023-03-04T19:47:01.778Z,71.90
2023-03-04T19:49:35.267Z,77.70
2023-03-04T19:52:04.922Z,79.60
2023-03-04T19:54:34.073Z,75.10
2023-03-04T19:57:04.812Z,73.40
2023-03-04T19:59:34.808Z,59.00
2023-03-04T20:02:03.300Z,57.70
2023-03-04T20:04:31.925Z,55.20
2023-03-04T20:07:00.769Z,50.80
2023-03-04T20:09:28.971Z,50.10
2023-03-04T20:11:59.290Z,44.30
2023-03-04T20:14:28.168Z,45.10
2023-03-04T20:17:02.618Z,45.20
2023-03-04T20:22:00.973Z,40.40
2023-03-04T20:24:29.651Z,39.70
2023-03-04T20:26:58.355Z,41.30
2023-03-04T20:29:29.071Z,38.20
2023-03-04T20:31:58.427Z,36.50
2023-03-04T20:34:27.220Z,36.50
2023-03-04T20:36:55.286Z,36.70
2023-03-04T20:39:29.615Z,35.40
2023-03-04T20:41:59.548Z,32.50
2023-03-04T20:44:28.858Z,29.90
2023-03-04T20:46:57.492Z,28.80
2023-03-04T20:49:29.037Z,26.60
2023-03-04T20:52:03.334Z,28.50
2023-03-04T20:54:33.058Z,26.30
2023-03-04T20:57:01.781Z,23.80
2023-03-04T20:59:30.408Z,23.00
2023-03-04T21:02:00.208Z,23.40
2023-03-04T21:04:28.929Z,22.40
2023-03-04T21:06:57.744Z,21.70
2023-03-04T21:09:27.516Z,22.00
2023-03-04T21:11:57.092Z,22.40
2023-03-04T21:14:31.830Z,22.00
2023-03-04T21:17:02.847Z,20.30
2023-03-04T21:19:36.366Z,20.80
2023-03-04T21:22:05.006Z,19.50
2023-03-04T21:24:35.368Z,20.30
2023-03-04T21:27:04.897Z,18.30
2023-03-04T21:29:34.604Z,19.00
2023-03-04T21:32:23.889Z,18.90
2023-03-04T21:34:54.720Z,19.20
2023-03-04T21:37:24.815Z,19.20
2023-03-04T21:39:55.245Z,18.20
2023-03-04T21:42:23.916Z,18.80
2023-03-04T21:44:53.443Z,20.20
2023-03-04T21:47:22.794Z,20.70
2023-03-04T21:49:51.508Z,20.30
2023-03-04T21:52:21.927Z,19.80
2023-03-04T21:54:50.698Z,18.90
2023-03-04T21:57:19.816Z,19.00
2023-03-04T21:59:48.712Z,19.50
2023-03-04T22:02:20.783Z,18.30
2023-03-04T22:04:49.041Z,18.40
2023-03-04T22:07:18.339Z,19.50
2023-03-04T22:09:47.254Z,18.00
2023-03-04T22:12:18.300Z,18.50
2023-03-04T22:14:48.005Z,17.70
2023-03-04T22:17:16.793Z,16.90
2023-03-04T22:19:46.240Z,18.90
2023-03-04T22:22:18.123Z,18.10
2023-03-04T22:24:46.588Z,16.90
2023-03-04T22:27:16.039Z,16.80
2023-03-04T22:29:44.925Z,16.90
2023-03-04T22:32:15.540Z,16.20
2023-03-04T22:34:43.924Z,17.00
2023-03-04T22:37:12.792Z,16.20
2023-03-04T22:39:41.634Z,17.70
2023-03-04T22:42:11.887Z,17.40
2023-03-04T22:44:40.233Z,16.60
2023-03-04T22:47:09.567Z,16.50
2023-03-04T22:49:42.337Z,15.50
2023-03-04T22:52:11.626Z,15.80
2023-03-04T22:54:39.875Z,15.10
2023-03-04T22:57:08.055Z,16.30
2023-03-04T22:59:36.478Z,16.50
2023-03-04T23:02:05.277Z,15.90
2023-03-04T23:04:33.958Z,15.70
2023-03-04T23:07:03.153Z,15.60
2023-03-04T23:09:32.360Z,16.30
2023-03-04T23:12:01.584Z,17.20
2023-03-04T23:14:30.064Z,15.10
2023-03-04T23:16:58.530Z,16.00
2023-03-04T23:19:27.536Z,16.20
2023-03-04T23:21:56.817Z,17.00
2023-03-04T23:24:26.829Z,16.80
2023-03-04T23:26:56.450Z,16.50
2023-03-04T23:29:24.733Z,15.90
2023-03-04T23:31:53.084Z,15.10
2023-03-04T23:34:22.361Z,15.80
2023-03-04T23:36:50.849Z,14.30
2023-03-04T23:39:21.218Z,14.90
2023-03-04T23:41:50.326Z,16.70
2023-03-04T23:44:19.020Z,16.60
2023-03-04T23:46:47.331Z,16.70
2023-03-04T23:49:18.105Z,15.30
2023-03-04T23:51:47.069Z,15.20
2023-03-04T23:54:15.958Z,16.20
2023-03-04T23:56:44.851Z,15.20
2023-03-04T23:59:13.470Z,15.20
